Weather at Arad International Airport

Public forecast

Using degrees Celsius for public forecast. Weather courtesy of forecast.io.

Current aviation weather report (METAR) for Arad International Airport

2024/05/26 14:30 (retrieved 39 minutes ago)

LRAR 261430Z 15004KT 120V180 CAVOK 26/08 Q1018

Closest aviation forecast (TAF) to Arad International Airport

Closest forecast is Timişoara Traian Vuia Airport, 22.2 nm (41.2 km) S.

2024/05/26 12:33 (retrieved 3 hours ago)

TAF LRTR 261100Z 2612/2712 11010KT CAVOK BECMG 2615/2617 VRB03KT